Central Sierra Snow Lab Weather observations

Data are for 10 minute period ending at time listed.
 Day   Time    Incoming  Reflected   Ave.   Ave.    Ave.    Vector  Max.    Ave.    Total    Snow   
  of    of      Solar     Solar      Air    Rel.    Wind    Wind    Wind   Baro.   Precip.   Depth  
Year   Day     Radiation Radiation   Temp.  Humid.  Speed   Dir.    Gust   Press.                   
2015   (PST)    Kw/m2     Kw/m2       F       %      mph     deg.    mph     mb.     in.      in.   
----------------------------------------------------------------------------------------------------
 244   18:40    0.004     999.000     59.8     39     3.0     205     6.0   792.10   13.22   -3.10  
 244   18:50    0.001     999.000     59.1     40     2.2     201     8.0   792.10   13.22   -3.00  
 244   19:00    0.000     999.000     58.4     42     2.3     192     5.1   792.30   13.22   -3.10  
 244   19:10    0.000     999.000     57.9     43     2.1     194     3.4   792.30   13.22   -3.10  
 244   19:20    0.000     999.000     57.6     44     2.2     190     6.3   792.40   13.22   -3.10  
 244   19:30    0.000     999.000     57.1     45     1.9     187     4.9   792.50   13.22   -3.00  
 244   19:40    0.000     999.000     56.6     46     1.7     199     4.8   792.60   13.22   -3.00  
 244   19:50    0.000     999.000     56.3     47     1.1     218     3.6   792.70   13.22   -2.90  
 244   20:00    0.000     999.000     55.7     48     1.2     222     4.4   792.70   13.22   -2.80  
 244   20:10    0.000     999.000     55.2     50     1.2     202     2.7   792.70   13.23   -2.80  
 244   20:20    0.000     999.000     54.8     51     1.3     214     4.7   792.80   13.22   -2.90  
 244   20:30    0.000     999.000     54.5     52     0.5     199     2.5   792.90   13.22   -2.90  
 244   20:40    0.000     999.000     54.0     53     0.6     241     2.2   792.90   13.22   -2.90  
 244   20:50    0.000     999.000     53.4     54     0.8     310     2.9   792.90   13.23   -2.90  
 244   21:00    0.000     999.000     53.0     55     0.5     157     2.5   792.90   13.23   -2.90  
 244   21:10    0.000     999.000     52.1     56     0.5      67     2.1   793.00   13.22   -2.80  
 244   21:20    0.000     999.000     51.6     57     0.9      93     2.4   793.00   13.22   -2.90  
 244   21:30    0.000     999.000     51.7     57     0.5     179     2.4   792.90   13.22   -2.90  
 244   21:40    0.000     999.000     51.3     58     0.5      24     2.0   792.90   13.23   -2.90  
 244   21:50    0.000     999.000     50.6     59     2.0      24     2.9   792.90   13.23   -2.90  
 244   22:00    0.000     999.000     50.1     60     1.7      34     2.7   793.00   13.22   -2.90  
 244   22:10    0.000     999.000     49.9     59     1.6      38     3.5   793.00   13.23   -2.80  
 244   22:20    0.000     999.000     49.8     59     1.5      38     2.5   793.00   13.22   -2.70  
 244   22:30    0.000     999.000     49.7     59     1.8      45     3.6   793.00   13.23   -2.80  
 244   22:40    0.000     999.000     49.5     59     2.3      31     3.4   793.00   13.23   -2.90  
 244   22:50    0.000     999.000     49.2     60     1.8      35     3.2   792.90   13.23   -2.80  
 244   23:00    0.000     999.000     48.8     60     1.9      35     3.4   792.90   13.23   -2.80  
 244   23:10    0.000     999.000     48.6     61     2.1      34     3.8   792.80   13.23   -2.80  
 244   23:20    0.000     999.000     48.4     61     1.9      37     3.7   792.80   13.23   -2.80  
 244   23:30    0.000     999.000     48.2     61     2.2      31     3.6   792.80   13.23   -2.90  
 244   23:40    0.000     999.000     48.1     61     2.0      28     3.4   792.80   13.23   -2.90  
 244   23:50    0.000     999.000     47.9     62     1.8      39     3.9   792.80   13.23   -2.90  
 245    0:00    0.000     999.000     47.8     62     1.9      29     3.1   792.70   13.22   -2.80  
 245    0:10    0.000     999.000     47.8     62     1.5      50     2.7   792.70   13.23   -2.90  
 245    0:20    0.000     999.000     48.1     60     0.9      34     2.1   792.70   13.24   -2.90  
 245    0:30    0.000     999.000     48.0     61     1.1      40     2.2   792.70   13.23   -2.90  
 245    0:40    0.000     999.000     48.0     60     0.8      28     2.2   792.70   13.24   -2.90  
 245    0:50    0.000     999.000     48.1     59     0.6      24     1.6   792.60   13.23   -2.90  
 245    1:00    0.000     999.000     48.4     58     0.5      20     2.9   792.60   13.23   -2.90  
 245    1:10    0.000     999.000     48.5     58     0.3     100     2.1   792.50   13.22   -2.90  
 245    1:20    0.000     999.000     48.9     56     1.0     133     3.0   792.50   13.23   -2.80  
 245    1:30    0.000     999.000     49.6     55     1.3     174     3.2   792.50   13.23   -2.70  
 245    1:40    0.000     999.000     49.9     55     0.9     184     2.6   792.50   13.22   -2.70  
 245    1:50    0.000     999.000     50.4     55     0.8     198     3.7   792.50   13.23   -2.80  
 245    2:00    0.000     999.000     50.4     55     1.1     155     2.9   792.50   13.23   -2.80  
 245    2:10    0.000     999.000     50.7     55     1.4     190     7.6   792.50   13.23   -2.70  
 245    2:20    0.000     999.000     50.8     54     1.2     192     5.2   792.40   13.23   -2.80  
 245    2:30    0.000     999.000     51.3     53     1.6     220     3.9   792.40   13.23   -2.80  
 245    2:40    0.000     999.000     51.3     53     1.5     204     4.2   792.30   13.23   -2.90  
 245    2:50    0.000     999.000     51.5     52     1.4     203     5.7   792.20   13.23   -2.90  
 245    3:00    0.000     999.000     51.1     52     1.2     194     5.0   792.20   13.23   -2.80  
 245    3:10    0.000     999.000     51.0     51     1.0      35     4.1   792.20   13.23   -2.90  
 245    3:20    0.000     999.000     50.7     50     0.8     199     2.8   792.20   13.23   -2.80  
 245    3:30    0.000     999.000     50.1     51     0.5     204     2.9   792.20   13.23   -2.90  
 245    3:40    0.000     999.000     49.1     52     0.1     153     3.1   792.20   13.23   -2.90  
 245    3:50    0.000     999.000     48.6     52     0.6     178     2.3   792.20   13.24   -2.80  
 245    4:00    0.000     999.000     48.8     49     0.9     138     1.9   792.20   13.23   -2.90  
 245    4:10    0.000     999.000     49.2     48     1.4     230     8.8   792.30   13.23   -2.80  
 245    4:20    0.000     999.000     50.2     46     1.1     185     5.7   792.30   13.23   -2.90  
 245    4:30    0.000     999.000     49.9     47     0.5     190     2.3   792.30   13.23   -2.90  
 245    4:40    0.000     999.000     48.6     50     0.7      30     1.9   792.30   13.23   -3.00  
 245    4:50    0.000     999.000     47.9     52     0.7      26     2.1   792.30   13.23   -2.90  
 245    5:00    0.000     999.000     47.7     53     0.4      24     1.4   792.30   13.23   -2.90  
 245    5:10    0.000     999.000     47.3     54     0.7      40     1.9   792.40   13.23   -3.00  
 245    5:20    0.000     999.000     47.0     56     0.4      40     1.7   792.40   13.24   -3.00  
 245    5:30    0.001     999.000     46.7     57     0.2      30     1.2   792.40   13.23   -2.90  
 245    5:40    0.003     999.000     46.4     58     0.1     294     1.5   792.50   13.24   -3.00  
 245    5:50    0.006     999.000     46.2     60     0.3      25     1.3   792.50   13.23   -3.00  
 245    6:00    0.008     999.000     45.8     62     0.2      28     1.2   792.50   13.24   -2.90  
 245    6:10    0.010     999.000     45.8     63     0.0       0     0.0   792.60   13.22   -2.70  
 245    6:20    0.012     999.000     46.0     66     0.1     292     1.2   792.60   13.23   -2.80  
 245    6:30    0.014     999.000     46.5     66     0.2     279     1.3   792.70   13.23   -3.00  
 245    6:40    0.016     999.000     47.0     67     0.6     180     2.0   792.70   13.23   -2.80  
 245    6:50    0.019     999.000     47.7     67     1.4     188     2.9   792.70   13.23   -2.80  
 245    7:00    0.034     999.000     48.8     65     1.5     176     5.3   792.60   13.23   -2.80  
 245    7:10    0.160     999.000     50.6     62     1.7     190     6.4   792.50   13.24   -2.90  
 245    7:20    0.175     999.000     52.0     59     2.1     201     5.4   792.50   13.22   -3.00  
 245    7:30    0.263     999.000     53.2     56     2.6     194     7.8   792.50   13.23   -3.30  
 245    7:40    0.339     999.000     54.3     52     3.0     188     8.2   792.50   13.23   -3.40  
 245    7:50    0.369     999.000     55.0     48     2.9     208     8.3   792.40   13.23   -3.50  
 245    8:00    0.400     999.000     55.6     48     2.7     212     8.1   792.40   13.22   -3.60  
 245    8:10    0.432     999.000     56.3     46     2.9     228     8.2   792.40   13.22   -3.60  
 245    8:20    0.463     999.000     56.6     44     3.4     191     9.1   792.40   13.22   -3.60  
 245    8:30    0.493     999.000     57.1     42     3.5     203     9.4   792.40   13.23   -3.60  
 245    8:40    0.523     999.000     57.8     42     3.5     201     9.0   792.40   13.23   -3.60  
 245    8:50    0.551     999.000     58.5     40     3.8     192    10.8   792.40   13.21   -3.60  
 245    9:00    0.578     999.000     58.9     39     3.8     196    10.2   792.40   13.23   -3.70  
 245    9:10    0.606     999.000     59.0     40     4.2     201    10.6   792.40   13.22   -3.60  
 245    9:20    0.633     999.000     59.9     37     3.4     210     8.0   792.50   13.22   -3.70  
 245    9:30    0.657     999.000     60.6     35     3.4     202     9.9   792.40   13.22   -3.70  
 245    9:40    0.681     999.000     61.2     35     4.0     202    12.0   792.40   13.22   -3.70  
 245    9:50    0.704     999.000     61.5     34     3.3     228     9.7   792.40   13.22   -3.80  
 245   10:00    0.725     999.000     61.8     33     4.4     200    12.7   792.40   13.22   -3.80  
 245   10:10    0.744     999.000     62.5     33     3.6     207    12.8   792.30   13.22   -3.80  
 245   10:20    0.761     999.000     63.2     32     3.7     216     9.9   792.30   13.23   -3.90  
 245   10:30    0.801     999.000     63.2     30     3.5     222     9.0   792.20   13.23   -3.80  
 245   10:40    0.793     999.000     63.9     29     3.7     216     7.8   792.20   13.23   -3.80  
 245   10:50    0.804     999.000     63.8     30     4.3     202     9.9   792.10   13.22   -3.90  
 245   11:00    0.815     999.000     64.0     31     4.7     205    13.5   792.10   13.23   -3.60  
 245   11:10    0.825     999.000     64.4     30     3.3     223    10.8   792.00   13.22   -3.90  
 245   11:20    0.832     999.000     64.5     29     4.4     213    11.4   791.90   13.23   -3.70  
 245   11:30    0.844     999.000     65.7     28     3.6     209    10.4   791.80   13.23   -3.70  
 245   11:40    0.848     999.000     65.4     26     4.7     201    11.8   791.70   13.23   -3.70  
 245   11:50    0.854     999.000     65.2     26     4.5     197    12.8   791.70   13.22   -3.60  
 245   12:00    0.855     999.000     65.6     24     4.5     205    10.8   791.60   13.22   -3.70  
 245   12:10    0.860     999.000     65.9     23     4.4     201    12.8   791.60   13.22   -3.70  
 245   12:20    0.858     999.000     65.8     21     4.4     211    10.4   791.60   13.22   -3.70  
 245   12:30    0.854     999.000     65.8     22     4.8     211    14.6   791.50   13.22   -2.20  
 245   12:40    0.852     999.000     67.0     22     4.4     208    15.0   791.50   13.23   -3.70  
 245   12:50    0.851     999.000     66.1     21     4.2     222    10.9   791.40   13.22   -3.70  
 245   13:00    0.842     999.000     66.8     22     4.4     211    11.0   791.30   13.23   -3.60  
 245   13:10    0.859     999.000     67.4     23     3.3     226    10.3   791.30   13.22   -2.30  
 245   13:20    0.818     999.000     67.4     25     3.9     216    11.8   791.30   13.23   10.10  
 245   13:30    0.803     999.000     66.8     27     4.8     211    15.2   791.20   13.22    3.40  
 245   13:40    0.787     999.000     66.6     28     4.2     210    13.3   791.10   13.22   -3.60  
 245   13:50    0.774     999.000     65.6     29     5.0     230    12.3   791.10   13.22   -3.70  
 245   14:00    0.777     999.000     64.9     30     5.2     228    12.8   791.10   13.22   -3.50  
 245   14:10    0.742     999.000     64.5     30     5.7     236    17.3   791.10   13.22   -3.40  
 245   14:20    0.720     999.000     64.9     31     5.0     234    11.9   791.10   13.22   -3.40  
 245   14:30    0.699     999.000     65.4     30     3.9     215    12.1   791.00   13.22   -3.40  
 245   14:40    0.676     999.000     64.9     31     4.4     210    10.8   791.00   13.22   -3.40  
 245   14:50    0.654     999.000     65.3     30     4.6     211    15.8   790.90   13.22   -3.30  
 245   15:00    0.630     999.000     65.3     30     3.9     229    10.3   790.80   13.23   -3.40  
 245   15:10    0.603     999.000     64.9     30     4.3     216    10.7   790.80   13.23   -3.40  
 245   15:20    0.577     999.000     65.0     29     3.4     215     8.2   790.90   13.22   -3.30  
 245   15:30    0.549     999.000     64.9     27     4.8     203    12.8   790.90   13.23   -3.30  
 245   15:40    0.519     999.000     64.1     29     4.1     219    13.3   790.80   13.23   10.70  
 245   15:50    0.490     999.000     64.4     30     4.1     224    10.9   790.80   13.23   77.40  
 245   16:00    0.460     999.000     63.5     26     5.0     198    17.5   790.80   13.22   13.30  
 245   16:10    0.427     999.000     63.2     29     3.8     205     8.2   790.80   13.22   -3.40  
 245   16:20    0.393     999.000     63.4     29     4.1     206    11.9   790.80   13.22   -3.40  
 245   16:30    0.361     999.000     63.1     30     3.7     206     9.5   790.70   13.23   -3.40  
 245   16:40    0.329     999.000     62.6     30     4.2     209    10.2   790.60   13.22   58.00  
 245   16:50    0.291     999.000     62.3     31     3.5     212    12.0   790.60   13.22   164.10  
 245   17:00    0.106     999.000     62.1     31     3.7     221    12.3   790.60   13.22   162.50  
 245   17:10    0.040     999.000     60.8     33     3.2     198     9.3   790.50   13.23   101.20  
 245   17:20    0.055     999.000     60.4     37     3.1     209     6.2   790.50   13.22   -3.30  
 245   17:30    0.081     999.000     59.8     39     3.9     234    15.2   790.60   13.23   -3.20  
 245   17:40    0.057     999.000     59.0     40     3.5     230    12.8   790.50   13.21   -3.20  
 245   17:50    0.039     999.000     58.9     41     3.3     216     8.7   790.50   13.22   -3.10  
 245   18:00    0.022     999.000     58.2     43     3.6     227    10.6   790.50   13.22   -3.20  
 245   18:10    0.017     999.000     57.0     46     2.8     207     7.4   790.50   13.22   -3.10  
 245   18:20    0.012     999.000     56.4     47     3.0     233     9.7   790.50   13.22   -3.00  
 245   18:30    0.008     999.000     55.8     48     2.9     205     6.1   790.50   13.22   -3.00  

Return to Central Sierra Snow Lab graphs page.


Western Regional Climate Center,wrcc@dri.edu